Time;durP1;ratioP1;P1;durP2;ratioP2;P2;SDS_P1;SDS_P2;PMS_P1;PMS_P2;Temp;Humidity;BMP_temperature;BMP_pressure;BME280_temperature;BME280_humidity;BME280_pressure;Samples;Min_cycle;Max_cycle;Signal;HPM_P1;HPM_P2
2022/10/13 00:02:38;;;;;;;;;;;;;;;;;;10505039;28;19963;-63
2022/10/13 00:07:40;;;;;;;;;;;;;;;;;;10504851;28;19974;-63
2022/10/13 00:12:42;;;;;;;;;;;;;;;;;;10504885;28;20299;-63
2022/10/13 00:17:44;;;;;;;;;;;;;;;;;;10504574;28;19924;-63
2022/10/13 00:22:46;;;;;;;;;;;;;;;;;;10504178;28;19978;-63
2022/10/13 00:27:48;;;;;;;;;;;;;;;;;;10503315;28;20333;-63
2022/10/13 00:32:50;;;;;;;;;;;;;;;;;;10504810;28;19928;-63
2022/10/13 00:37:52;;;;;;;;;;;;;;;;;;10502907;28;19924;-63
2022/10/13 00:42:54;;;;;;;;;;;;;;;;;;10503046;28;19932;-63
2022/10/13 00:47:56;;;;;;;;;;;;;;;;;;10503589;28;19924;-63
2022/10/13 00:52:58;;;;;;;;;;;;;;;;;;10503404;28;19924;-63
2022/10/13 00:58:01;;;;;;;;;;;;;;;;;;10503237;28;20299;-63
2022/10/13 01:03:06;;;;;;;;;;;;;;;;;;10501836;28;19924;-63
2022/10/13 01:08:08;;;;;;;;;;;;;;;;;;10503195;28;19925;-63
2022/10/13 01:13:10;;;;;;;;;;;;;;;;;;10502640;28;20341;-63
2022/10/13 01:18:12;;;;;;;;;;;;;;;;;;10501118;28;19982;-63
2022/10/13 01:23:14;;;;;;;;;;;;;;;;;;10501812;28;19929;-63
2022/10/13 01:28:16;;;;;;;;;;;;;;;;;;10502680;28;19925;-63
2022/10/13 01:33:18;;;;;;;;;;;;;;;;;;10501078;28;20395;-63
2022/10/13 01:38:20;;;;;;;;;;;;;;;;;;10500879;28;19954;-63
2022/10/13 01:43:22;;;;;;;;;;;;;;;;;;10499587;28;19985;-63
2022/10/13 01:48:24;;;;;;;;;;;;;;;;;;10501944;28;19924;-63
2022/10/13 01:53:26;;;;;;;;;;;;;;;;;;10500130;28;19970;-63
2022/10/13 01:58:28;;;;;;;;;;;;;;;;;;10500420;28;19977;-63
2022/10/13 02:03:30;;;;;;;;;;;;;;;;;;10499174;28;19932;-63
2022/10/13 02:08:32;;;;;;;;;;;;;;;;;;10500467;28;19951;-63
2022/10/13 02:13:34;;;;;;;;;;;;;;;;;;10499568;28;19993;-63
2022/10/13 02:18:36;;;;;;;;;;;;;;;;;;10499891;28;19924;-63
2022/10/13 02:23:38;;;;;;;;;;;;;;;;;;10499310;28;19951;-63
2022/10/13 02:28:40;;;;;;;;;;;;;;;;;;10497015;28;20361;-63
2022/10/13 02:33:42;;;;;;;;;;;;;;;;;;10499481;28;20438;-63
2022/10/13 02:38:45;;;;;;;;;;;;;;;;;;10500000;28;19925;-63
2022/10/13 02:43:47;;;;;;;;;;;;;;;;;;10497876;28;19924;-64
2022/10/13 02:48:49;;;;;;;;;;;;;;;;;;10498351;28;19925;-63
2022/10/13 02:53:51;;;;;;;;;;;;;;;;;;10499473;28;19974;-63
2022/10/13 02:58:53;;;;;;;;;;;;;;;;;;10498655;28;19924;-63
2022/10/13 03:03:55;;;;;;;;;;;;;;;;;;10497085;28;19978;-63
2022/10/13 03:08:58;;;;;;;;;;;;;;;;;;10498632;28;19928;-63
2022/10/13 03:14:00;;;;;;;;;;;;;;;;;;10498157;28;19925;-63
2022/10/13 03:19:02;;;;;;;;;;;;;;;;;;10496275;28;20425;-63
2022/10/13 03:24:07;;;;;;;;;;;;;;;;;;10463958;28;19929;-63
2022/10/13 03:29:09;;;;;;;;;;;;;;;;;;10497913;28;19928;-63
2022/10/13 03:34:11;;;;;;;;;;;;;;;;;;10498543;28;19928;-63
2022/10/13 03:39:13;;;;;;;;;;;;;;;;;;10496595;28;19928;-63
2022/10/13 03:44:15;;;;;;;;;;;;;;;;;;10497517;28;19928;-64
2022/10/13 03:49:17;;;;;;;;;;;;;;;;;;10496866;28;19987;-63
2022/10/13 03:54:19;;;;;;;;;;;;;;;;;;10498177;28;19924;-64
2022/10/13 03:59:21;;;;;;;;;;;;;;;;;;10493526;28;19971;-64
2022/10/13 04:04:23;;;;;;;;;;;;;;;;;;10455858;28;20334;-63
2022/10/13 04:09:26;;;;;;;;;;;;;;;;;;10455746;28;20433;-63
2022/10/13 04:14:28;;;;;;;;;;;;;;;;;;10472023;28;19928;-63
2022/10/13 04:19:30;;;;;;;;;;;;;;;;;;10495748;28;19963;-64
2022/10/13 04:24:32;;;;;;;;;;;;;;;;;;10498599;28;19954;-63
2022/10/13 04:29:34;;;;;;;;;;;;;;;;;;10504974;28;19978;-63
2022/10/13 04:34:36;;;;;;;;;;;;;;;;;;10503277;28;19962;-63
2022/10/13 04:39:38;;;;;;;;;;;;;;;;;;10503824;28;19929;-63
2022/10/13 04:44:40;;;;;;;;;;;;;;;;;;10504287;28;19925;-63
2022/10/13 04:49:42;;;;;;;;;;;;;;;;;;10502275;28;19924;-63
2022/10/13 04:54:44;;;;;;;;;;;;;;;;;;10504039;28;19924;-63
2022/10/13 04:59:47;;;;;;;;;;;;;;;;;;10501526;28;20363;-63
2022/10/13 05:04:49;;;;;;;;;;;;;;;;;;10502727;28;19978;-63
2022/10/13 05:09:51;;;;;;;;;;;;;;;;;;10502859;28;19974;-63
2022/10/13 05:14:53;;;;;;;;;;;;;;;;;;10502091;28;20299;-64
2022/10/13 05:19:55;;;;;;;;;;;;;;;;;;10501273;28;19993;-63
2022/10/13 05:24:57;;;;;;;;;;;;;;;;;;10502326;28;20383;-63
2022/10/13 05:29:59;;;;;;;;;;;;;;;;;;10502004;28;19970;-63
2022/10/13 05:35:01;;;;;;;;;;;;;;;;;;10500951;28;19928;-64
2022/10/13 05:40:03;;;;;;;;;;;;;;;;;;10500449;28;19924;-63
2022/10/13 05:45:05;;;;;;;;;;;;;;;;;;10501431;28;20041;-63
2022/10/13 05:50:07;;;;;;;;;;;;;;;;;;10499946;28;19924;-63
2022/10/13 05:55:09;;;;;;;;;;;;;;;;;;10501681;28;19924;-63
2022/10/13 06:00:11;;;;;;;;;;;;;;;;;;10499688;28;20429;-63
2022/10/13 06:05:14;;;;;;;;;;;;;;;;;;10499591;28;19951;-63
2022/10/13 06:10:16;;;;;;;;;;;;;;;;;;10498398;28;20302;-63
2022/10/13 06:15:18;;;;;;;;;;;;;;;;;;10500853;28;19925;-63
2022/10/13 06:20:20;;;;;;;;;;;;;;;;;;10497710;28;19928;-63
2022/10/13 06:25:22;;;;;;;;;;;;;;;;;;10499867;28;19974;-63
2022/10/13 06:30:24;;;;;;;;;;;;;;;;;;10500234;28;19970;-63
2022/10/13 06:35:26;;;;;;;;;;;;;;;;;;10499203;28;19925;-63
2022/10/13 06:40:28;;;;;;;;;;;;;;;;;;10499007;28;19925;-63
2022/10/13 06:45:30;;;;;;;;;;;;;;;;;;10499670;28;19924;-63
2022/10/13 06:50:32;;;;;;;;;;;;;;;;;;10497048;28;19928;-63
2022/10/13 06:55:34;;;;;;;;;;;;;;;;;;10499457;28;19928;-63
2022/10/13 07:00:36;;;;;;;;;;;;;;;;;;10497278;28;19924;-64
2022/10/13 07:05:38;;;;;;;;;;;;;;;;;;10498556;28;19930;-63
2022/10/13 07:10:40;;;;;;;;;;;;;;;;;;10497306;28;19924;-63
2022/10/13 07:15:42;;;;;;;;;;;;;;;;;;10498787;28;19932;-63
2022/10/13 07:20:44;;;;;;;;;;;;;;;;;;10496279;28;20440;-64
2022/10/13 07:25:46;;;;;;;;;;;;;;;;;;10498712;28;19924;-64
2022/10/13 07:30:48;;;;;;;;;;;;;;;;;;10498014;28;20280;-64
2022/10/13 07:35:50;;;;;;;;;;;;;;;;;;10497635;28;19974;-64
2022/10/13 07:40:52;;;;;;;;;;;;;;;;;;10479186;28;20329;-64
2022/10/13 07:45:54;;;;;;;;;;;;;;;;;;10497563;28;19970;-64
2022/10/13 07:50:57;;;;;;;;;;;;;;;;;;10497824;28;20421;-64
2022/10/13 07:55:59;;;;;;;;;;;;;;;;;;10497591;28;19925;-63
2022/10/13 08:01:01;;;;;;;;;;;;;;;;;;10499577;28;19924;-63
2022/10/13 08:06:03;;;;;;;;;;;;;;;;;;10505999;28;19932;-64
2022/10/13 08:11:05;;;;;;;;;;;;;;;;;;10505766;28;19975;-64
2022/10/13 08:16:07;;;;;;;;;;;;;;;;;;10504345;28;19924;-64
2022/10/13 08:21:09;;;;;;;;;;;;;;;;;;10503719;28;20338;-64
2022/10/13 08:26:31;;;;;;;;;;;;;;;;;;10505161;28;20028;-64
2022/10/13 08:31:33;;;;;;;;;;;;;;;;;;10504108;28;19982;-63
2022/10/13 08:36:36;;;;;;;;;;;;;;;;;;10503189;28;20379;-63
2022/10/13 08:41:38;;;;;;;;;;;;;;;;;;10503604;28;19924;-63
2022/10/13 08:46:40;;;;;;;;;;;;;;;;;;10504385;28;19982;-63
2022/10/13 08:51:42;;;;;;;;;;;;;;;;;;10504230;28;19982;-64
2022/10/13 08:56:48;;;;;;;;;;;;;;;;;;10502474;28;19928;-63
2022/10/13 09:01:50;;;;;;;;;;;;;;;;;;10502258;28;19931;-64
2022/10/13 09:06:53;;;;;;;;;;;;;;;;;;10503069;28;20362;-64
2022/10/13 09:11:55;;;;;;;;;;;;;;;;;;10502194;28;19924;-64
2022/10/13 09:16:57;;;;;;;;;;;;;;;;;;10501330;28;19974;-64
2022/10/13 09:21:59;;;;;;;;;;;;;;;;;;10483981;28;20425;-64
2022/10/13 09:27:01;;;;;;;;;;;;;;;;;;10502917;28;19946;-64
2022/10/13 09:32:03;;;;;;;;;;;;;;;;;;10502753;28;19947;-64
2022/10/13 09:37:05;;;;;;;;;;;;;;;;;;10499997;28;19970;-64
2022/10/13 09:42:07;;;;;;;;;;;;;;;;;;10501321;28;19978;-64
2022/10/13 09:47:10;;;;;;;;;;;;;;;;;;10483554;28;19925;-64
2022/10/13 09:52:12;;;;;;;;;;;;;;;;;;10501225;28;20353;-64
2022/10/13 09:57:14;;;;;;;;;;;;;;;;;;10500830;28;19925;-64
2022/10/13 10:02:16;;;;;;;;;;;;;;;;;;10499762;28;20437;-64
2022/10/13 10:07:20;;;;;;;;;;;;;;;;;;10501251;28;19970;-64
2022/10/13 10:12:23;;;;;;;;;;;;;;;;;;10501243;28;19935;-64
2022/10/13 10:17:28;;;;;;;;;;;;;;;;;;10498505;28;19925;-64
2022/10/13 10:22:31;;;;;;;;;;;;;;;;;;10497414;28;19925;-70
2022/10/13 10:27:33;;;;;;;;;;;;;;;;;;10500428;28;19974;-71
2022/10/13 10:32:35;;;;;;;;;;;;;;;;;;10489484;22;19975;-70
2022/10/13 10:37:37;;;;;;;;;;;;;;;;;;10457580;28;19924;-70
2022/10/13 10:42:39;;;;;;;;;;;;;;;;;;10457535;28;19925;-71
2022/10/13 10:47:41;;;;;;;;;;;;;;;;;;10457792;28;20287;-70
2022/10/13 10:52:43;;;;;;;;;;;;;;;;;;10456299;28;19925;-70
2022/10/13 10:57:45;;;;;;;;;;;;;;;;;;10457749;28;19925;-70
2022/10/13 11:02:47;;;;;;;;;;;;;;;;;;10456206;28;19970;-65
2022/10/13 11:07:49;;;;;;;;;;;;;;;;;;10456039;28;19971;-70
2022/10/13 11:12:51;;;;;;;;;;;;;;;;;;10456823;28;19971;-65
2022/10/13 11:17:53;;;;;;;;;;;;;;;;;;10456829;28;20423;-64
2022/10/13 11:22:55;;;;;;;;;;;;;;;;;;10497690;28;19978;-63
2022/10/13 11:27:57;;;;;;;;;;;;;;;;;;10498060;28;19925;-62
2022/10/13 11:33:07;;;;;;;;;;;;;;;;;;10496939;28;19986;-61
2022/10/13 11:38:10;;;;;;;;;;;;;;;;;;10505033;28;19924;-61
2022/10/13 11:43:17;;;;;;;;;;;;;;;;;;10506330;28;19924;-62
2022/10/13 11:48:19;;;;;;;;;;;;;;;;;;10506798;28;19924;-62
2022/10/13 11:53:22;;;;;;;;;;;;;;;;;;10505209;28;19928;-62
2022/10/13 11:58:24;;;;;;;;;;;;;;;;;;10506132;28;19954;-62
2022/10/13 12:03:26;;;;;;;;;;;;;;;;;;10504554;28;19925;-62
2022/10/13 12:08:28;;;;;;;;;;;;;;;;;;10505373;28;19978;-61
2022/10/13 12:13:30;;;;;;;;;;;;;;;;;;10505796;28;19970;-61
2022/10/13 12:18:36;;;;;;;;;;;;;;;;;;10505529;28;19924;-61
2022/10/13 12:23:39;;;;;;;;;;;;;;;;;;10503736;28;19924;-61
2022/10/13 12:28:41;;;;;;;;;;;;;;;;;;10505270;28;19924;-61
2022/10/13 12:33:43;;;;;;;;;;;;;;;;;;10503480;28;20007;-61
2022/10/13 12:38:45;;;;;;;;;;;;;;;;;;10503983;28;19928;-62
2022/10/13 12:43:47;;;;;;;;;;;;;;;;;;10503610;28;19925;-62
2022/10/13 12:48:50;;;;;;;;;;;;;;;;;;10504080;28;19928;-62
2022/10/13 12:53:52;;;;;;;;;;;;;;;;;;10503050;28;19925;-62
2022/10/13 12:58:54;;;;;;;;;;;;;;;;;;10502697;28;20272;-62
2022/10/13 13:03:56;;;;;;;;;;;;;;;;;;10503929;28;19931;-61
2022/10/13 13:08:58;;;;;;;;;;;;;;;;;;10503084;28;19951;-61
2022/10/13 13:14:00;;;;;;;;;;;;;;;;;;10502918;28;20383;-61
2022/10/13 13:19:02;;;;;;;;;;;;;;;;;;10502411;28;19925;-61
2022/10/13 13:24:04;;;;;;;;;;;;;;;;;;10503034;28;19929;-62
2022/10/13 13:29:17;;;;;;;;;;;;;;;;;;10503021;28;20002;-62
2022/10/13 13:34:19;;;;;;;;;;;;;;;;;;10501101;28;20272;-62
2022/10/13 13:39:24;;;;;;;;;;;;;;;;;;10500993;28;19985;-67
2022/10/13 13:44:26;;;;;;;;;;;;;;;;;;10502277;28;19928;-70
2022/10/13 13:49:28;;;;;;;;;;;;;;;;;;10501496;28;20322;-70
2022/10/13 13:54:30;;;;;;;;;;;;;;;;;;10500941;28;19970;-69
2022/10/13 13:59:32;;;;;;;;;;;;;;;;;;10499220;28;20268;-69
2022/10/13 14:04:34;;;;;;;;;;;;;;;;;;10500708;28;19928;-69
2022/10/13 14:09:36;;;;;;;;;;;;;;;;;;10500608;28;20375;-61
2022/10/13 14:14:38;;;;;;;;;;;;;;;;;;10499899;28;19972;-62
2022/10/13 14:19:40;;;;;;;;;;;;;;;;;;10499162;28;19924;-62
2022/10/13 14:24:42;;;;;;;;;;;;;;;;;;10499162;28;19924;-62
2022/10/13 14:29:45;;;;;;;;;;;;;;;;;;10500473;28;19929;-61
2022/10/13 14:34:47;;;;;;;;;;;;;;;;;;10498455;28;19924;-61
2022/10/13 14:39:49;;;;;;;;;;;;;;;;;;10499142;28;20033;-61
2022/10/13 14:44:51;;;;;;;;;;;;;;;;;;10499296;28;20329;-61
2022/10/13 14:49:53;;;;;;;;;;;;;;;;;;10499095;28;19932;-62
2022/10/13 14:54:55;;;;;;;;;;;;;;;;;;10498126;28;19925;-62
2022/10/13 14:59:57;;;;;;;;;;;;;;;;;;10498479;28;19929;-62
2022/10/13 15:05:02;;;;;;;;;;;;;;;;;;10498677;28;19958;-62
2022/10/13 15:10:04;;;;;;;;;;;;;;;;;;10499207;28;19981;-62
2022/10/13 15:15:07;;;;;;;;;;;;;;;;;;10496808;28;19924;-61
2022/10/13 15:20:09;;;;;;;;;;;;;;;;;;10497917;28;19970;-61
2022/10/13 15:25:11;;;;;;;;;;;;;;;;;;10498793;28;19929;-61
2022/10/13 15:30:13;;;;;;;;;;;;;;;;;;10497787;28;19970;-61
2022/10/13 15:35:15;;;;;;;;;;;;;;;;;;10495668;28;19929;-61
2022/10/13 15:40:17;;;;;;;;;;;;;;;;;;10497398;28;19925;-61
2022/10/13 15:45:19;;;;;;;;;;;;;;;;;;10498469;28;19924;-61
2022/10/13 15:50:22;;;;;;;;;;;;;;;;;;10497676;28;20425;-61
2022/10/13 15:55:24;;;;;;;;;;;;;;;;;;10497261;28;20034;-61
2022/10/13 16:00:26;;;;;;;;;;;;;;;;;;10495734;28;19924;-61
2022/10/13 16:05:28;;;;;;;;;;;;;;;;;;10498020;28;19924;-61
2022/10/13 16:10:30;;;;;;;;;;;;;;;;;;10495460;28;20337;-61
2022/10/13 16:15:32;;;;;;;;;;;;;;;;;;10497855;28;19925;-61
2022/10/13 16:20:38;;;;;;;;;;;;;;;;;;10497265;28;20355;-61
2022/10/13 16:25:40;;;;;;;;;;;;;;;;;;10505397;28;19924;-61
2022/10/13 16:30:42;;;;;;;;;;;;;;;;;;10501093;28;19928;-61
2022/10/13 16:35:44;;;;;;;;;;;;;;;;;;10501964;28;19982;-61
2022/10/13 16:40:46;;;;;;;;;;;;;;;;;;10502367;28;19925;-61
2022/10/13 16:45:49;;;;;;;;;;;;;;;;;;10503996;28;20438;-61
2022/10/13 16:51:00;;;;;;;;;;;;;;;;;;10504496;28;19924;-61
2022/10/13 16:56:02;;;;;;;;;;;;;;;;;;10502429;28;19924;-61
2022/10/13 17:01:04;;;;;;;;;;;;;;;;;;10502250;28;19973;-61
2022/10/13 17:06:07;;;;;;;;;;;;;;;;;;10501896;28;20012;-61
2022/10/13 17:11:09;;;;;;;;;;;;;;;;;;10502936;28;19928;-61
2022/10/13 17:16:11;;;;;;;;;;;;;;;;;;10503519;28;19955;-61
2022/10/13 17:21:13;;;;;;;;;;;;;;;;;;10523019;28;19924;-61
2022/10/13 17:26:15;;;;;;;;;;;;;;;;;;10515135;28;19928;-61
2022/10/13 17:31:17;;;;;;;;;;;;;;;;;;10499506;28;19960;-61
2022/10/13 17:36:19;;;;;;;;;;;;;;;;;;10495665;28;20376;-61
2022/10/13 17:41:21;;;;;;;;;;;;;;;;;;10497224;28;19924;-61
2022/10/13 17:46:23;;;;;;;;;;;;;;;;;;10497865;28;19982;-61
2022/10/13 17:51:37;;;;;;;;;;;;;;;;;;10499730;28;19924;-61
2022/10/13 17:56:39;;;;;;;;;;;;;;;;;;10497439;28;19978;-61
2022/10/13 18:01:41;;;;;;;;;;;;;;;;;;10497181;28;19980;-61
2022/10/13 18:06:43;;;;;;;;;;;;;;;;;;10496687;28;19931;-61
2022/10/13 18:11:48;;;;;;;;;;;;;;;;;;10513821;28;20322;-61
2022/10/13 18:16:52;;;;;;;;;;;;;;;;;;10498608;28;19929;-61
2022/10/13 18:21:54;;;;;;;;;;;;;;;;;;10495378;28;19928;-61
2022/10/13 18:26:56;;;;;;;;;;;;;;;;;;10497283;28;20445;-61
2022/10/13 18:31:58;;;;;;;;;;;;;;;;;;10436123;28;1765654;-61
2022/10/13 18:37:00;;;;;;;;;;;;;;;;;;10498750;28;19924;-61
2022/10/13 18:42:02;;;;;;;;;;;;;;;;;;10499042;28;19925;-61
2022/10/13 18:47:05;;;;;;;;;;;;;;;;;;10499536;28;19932;-61
2022/10/13 18:52:07;;;;;;;;;;;;;;;;;;10498770;28;19970;-61
2022/10/13 18:57:09;;;;;;;;;;;;;;;;;;10496843;28;19925;-61
2022/10/13 19:02:12;;;;;;;;;;;;;;;;;;10499350;28;19928;-61
2022/10/13 19:07:14;;;;;;;;;;;;;;;;;;10497533;28;19931;-61
2022/10/13 19:12:16;;;;;;;;;;;;;;;;;;10478940;28;19924;-61
2022/10/13 19:17:18;;;;;;;;;;;;;;;;;;10498448;28;19924;-61
2022/10/13 19:22:20;;;;;;;;;;;;;;;;;;10498144;28;19925;-61
2022/10/13 19:27:23;;;;;;;;;;;;;;;;;;10496159;28;19929;-61
2022/10/13 19:32:25;;;;;;;;;;;;;;;;;;10495091;28;19932;-61
2022/10/13 19:37:27;;;;;;;;;;;;;;;;;;10496873;28;19970;-61
2022/10/13 19:42:29;;;;;;;;;;;;;;;;;;10497460;28;19978;-61
2022/10/13 19:47:31;;;;;;;;;;;;;;;;;;10497448;28;19932;-61
2022/10/13 19:52:33;;;;;;;;;;;;;;;;;;10495502;28;19932;-61
2022/10/13 19:57:35;;;;;;;;;;;;;;;;;;10498528;28;20326;-61
2022/10/13 20:02:38;;;;;;;;;;;;;;;;;;10503698;28;20387;-61
2022/10/13 20:07:40;;;;;;;;;;;;;;;;;;10501191;28;19978;-61
2022/10/13 20:12:42;;;;;;;;;;;;;;;;;;10527008;28;19924;-61
2022/10/13 20:17:44;;;;;;;;;;;;;;;;;;10503265;28;19978;-61
2022/10/13 20:22:46;;;;;;;;;;;;;;;;;;10500739;28;19998;-61
2022/10/13 20:27:48;;;;;;;;;;;;;;;;;;10481790;28;19978;-61
2022/10/13 20:32:50;;;;;;;;;;;;;;;;;;10501727;28;19924;-61
2022/10/13 20:37:52;;;;;;;;;;;;;;;;;;10521914;28;19929;-61
2022/10/13 20:42:54;;;;;;;;;;;;;;;;;;10537877;28;20376;-61
2022/10/13 20:47:56;;;;;;;;;;;;;;;;;;10500692;28;20335;-61
2022/10/13 20:52:58;;;;;;;;;;;;;;;;;;10506256;28;19951;-61
2022/10/13 20:58:00;;;;;;;;;;;;;;;;;;10502719;28;19986;-61
2022/10/13 21:03:02;;;;;;;;;;;;;;;;;;10503993;28;19974;-61
2022/10/13 21:08:04;;;;;;;;;;;;;;;;;;10502073;28;20269;-61
2022/10/13 21:13:07;;;;;;;;;;;;;;;;;;10502173;28;20337;-61
2022/10/13 21:18:09;;;;;;;;;;;;;;;;;;10502730;28;19924;-61
2022/10/13 21:23:11;;;;;;;;;;;;;;;;;;10503152;28;19928;-61
2022/10/13 21:28:13;;;;;;;;;;;;;;;;;;10485451;28;19924;-61
2022/10/13 21:33:15;;;;;;;;;;;;;;;;;;10501626;28;19932;-61
2022/10/13 21:38:17;;;;;;;;;;;;;;;;;;10501132;28;19970;-61
2022/10/13 21:43:19;;;;;;;;;;;;;;;;;;10501724;28;19928;-61
2022/10/13 21:48:21;;;;;;;;;;;;;;;;;;10502265;28;19932;-61
2022/10/13 21:53:23;;;;;;;;;;;;;;;;;;10500599;28;19994;-61
2022/10/13 21:58:25;;;;;;;;;;;;;;;;;;10501520;28;19928;-61
2022/10/13 22:03:27;;;;;;;;;;;;;;;;;;10500987;28;20394;-61
2022/10/13 22:08:29;;;;;;;;;;;;;;;;;;10501433;28;19924;-61
2022/10/13 22:13:39;;;;;;;;;;;;;;;;;;10474190;28;20389;-61
2022/10/13 22:18:41;;;;;;;;;;;;;;;;;;10498555;28;19931;-62
2022/10/13 22:23:43;;;;;;;;;;;;;;;;;;10500753;28;19925;-62
2022/10/13 22:28:47;;;;;;;;;;;;;;;;;;10500164;28;19928;-61
2022/10/13 22:33:52;;;;;;;;;;;;;;;;;;10499290;28;19978;-61
2022/10/13 22:38:54;;;;;;;;;;;;;;;;;;10498411;28;19931;-61
2022/10/13 22:43:56;;;;;;;;;;;;;;;;;;10499329;28;20329;-61
2022/10/13 22:48:58;;;;;;;;;;;;;;;;;;10506949;22;19924;-62
2022/10/13 22:54:00;;;;;;;;;;;;;;;;;;10498399;28;19947;-62
2022/10/13 22:59:02;;;;;;;;;;;;;;;;;;10497954;28;19978;-62
2022/10/13 23:04:04;;;;;;;;;;;;;;;;;;10499420;28;19978;-62
2022/10/13 23:09:07;;;;;;;;;;;;;;;;;;10497889;28;20363;-62
2022/10/13 23:14:09;;;;;;;;;;;;;;;;;;10498532;28;20379;-62
2022/10/13 23:19:11;;;;;;;;;;;;;;;;;;10498198;28;19928;-62
2022/10/13 23:24:13;;;;;;;;;;;;;;;;;;10498925;28;19925;-62
2022/10/13 23:29:15;;;;;;;;;;;;;;;;;;10497018;28;20387;-62
2022/10/13 23:34:17;;;;;;;;;;;;;;;;;;10495998;28;20019;-62
2022/10/13 23:39:19;;;;;;;;;;;;;;;;;;10495983;28;20313;-62
2022/10/13 23:44:21;;;;;;;;;;;;;;;;;;10498941;28;19951;-62
2022/10/13 23:49:23;;;;;;;;;;;;;;;;;;10530575;28;19924;-62
2022/10/13 23:54:25;;;;;;;;;;;;;;;;;;10538475;28;20294;-62
2022/10/13 23:59:27;;;;;;;;;;;;;;;;;;10538471;28;19954;-62
